Time;durP1;ratioP1;P1;durP2;ratioP2;P2;SDS_P1;SDS_P2;PMS_P1;PMS_P2;Temp;Humidity;BMP_temperature;BMP_pressure;BME280_temperature;BME280_humidity;BME280_pressure;Samples;Min_cycle;Max_cycle;Signal;HPM_P1;HPM_P2
2022/02/28 00:02:16;;;;;;;8.38;5.10;;;;;;;3.12;75.81;100147.88;5053663;28;20028;-38
2022/02/28 00:04:42;;;;;;;8.93;5.32;;;;;;;3.33;75.28;100146.78;5053933;28;20041;-38
2022/02/28 00:07:07;;;;;;;9.38;5.60;;;;;;;3.19;75.55;100149.91;5053992;28;20034;-38
2022/02/28 00:09:33;;;;;;;9.10;5.65;;;;;;;3.17;75.28;100157.13;5053916;28;20029;-38
2022/02/28 00:11:58;;;;;;;15.43;8.32;;;;;;;3.21;75.12;100153.22;5053612;28;20481;-38
2022/02/28 00:14:24;;;;;;;12.63;8.13;;;;;;;3.22;75.26;100145.19;5053758;28;20025;-38
2022/02/28 00:16:49;;;;;;;10.02;6.32;;;;;;;3.10;76.18;100144.56;5054249;28;20029;-38
2022/02/28 00:19:15;;;;;;;9.20;6.07;;;;;;;3.13;75.28;100146.88;5053462;28;20370;-38
2022/02/28 00:21:40;;;;;;;8.73;5.63;;;;;;;3.32;74.96;100143.34;5053280;28;20436;-38
2022/02/28 00:24:06;;;;;;;9.68;6.43;;;;;;;3.29;74.90;100140.16;5053500;28;20044;-38
2022/02/28 00:26:31;;;;;;;9.93;6.28;;;;;;;3.01;76.47;100141.94;5052637;28;20392;-39
2022/02/28 00:28:57;;;;;;;9.95;6.07;;;;;;;3.01;76.26;100134.91;5053309;28;20040;-38
2022/02/28 00:31:22;;;;;;;9.23;6.45;;;;;;;3.09;76.33;100139.44;5053515;28;20618;-38
2022/02/28 00:33:48;;;;;;;9.70;5.65;;;;;;;3.12;75.22;100132.09;5053211;28;20028;-38
2022/02/28 00:36:13;;;;;;;9.07;5.63;;;;;;;2.97;75.87;100133.56;5065028;28;20143;-39
2022/02/28 00:38:38;;;;;;;10.38;5.65;;;;;;;2.89;75.84;100133.44;5053232;28;20028;-38
2022/02/28 00:41:04;;;;;;;10.30;6.25;;;;;;;2.99;76.63;100128.97;5053049;28;20472;-38
2022/02/28 00:43:29;;;;;;;11.13;6.30;;;;;;;2.40;77.46;100140.59;5053350;28;20397;-38
2022/02/28 00:45:55;;;;;;;10.75;6.78;;;;;;;2.47;77.19;100128.56;5053324;28;20104;-39
2022/02/28 00:48:20;;;;;;;9.27;5.88;;;;;;;2.29;78.56;100133.72;5053409;28;20377;-39
2022/02/28 00:50:46;;;;;;;11.52;6.90;;;;;;;2.37;77.70;100133.84;5053061;28;20020;-38
2022/02/28 00:53:11;;;;;;;11.38;7.03;;;;;;;2.30;77.81;100130.97;5052941;28;20025;-38
2022/02/28 00:55:37;;;;;;;9.52;6.28;;;;;;;2.08;81.39;100132.09;5059206;28;20023;-39
2022/02/28 00:58:03;;;;;;;12.07;6.72;;;;;;;2.04;78.92;100128.09;5072702;28;20030;-39
2022/02/28 01:00:28;;;;;;;10.32;6.28;;;;;;;2.23;79.16;100121.97;5072812;28;20019;-39
2022/02/28 01:02:54;;;;;;;12.43;6.25;;;;;;;2.24;77.40;100123.63;5054972;28;20086;-38
2022/02/28 01:05:20;;;;;;;10.18;5.95;;;;;;;2.25;77.97;100122.66;5072631;28;20472;-38
2022/02/28 01:07:46;;;;;;;10.98;6.10;;;;;;;1.86;79.16;100112.19;5072495;28;20028;-39
2022/02/28 01:10:12;;;;;;;7.90;5.15;;;;;;;2.33;78.91;100119.34;5072518;28;20473;-39
2022/02/28 01:12:37;;;;;;;8.48;5.45;;;;;;;2.25;79.97;100113.97;5072490;28;20477;-39
2022/02/28 01:15:04;;;;;;;10.63;5.82;;;;;;;2.97;78.88;100112.53;5072466;28;20021;-39
2022/02/28 01:17:29;;;;;;;9.85;5.60;;;;;;;3.57;77.60;100119.94;5072523;28;20138;-40
2022/02/28 01:19:55;;;;;;;9.85;5.43;;;;;;;3.83;77.12;100112.13;5072452;28;20137;-39
2022/02/28 01:22:21;;;;;;;9.60;5.18;;;;;;;3.86;80.43;100116.25;5072205;28;20048;-39
2022/02/28 01:24:46;;;;;;;6.72;4.28;;;;;;;2.83;79.28;100105.91;5072567;28;20479;-39
2022/02/28 01:27:11;;;;;;;5.78;3.78;;;;;;;2.23;82.10;100111.47;5072521;28;20073;-39
2022/02/28 01:29:37;;;;;;;5.60;3.90;;;;;;;2.15;83.61;100113.97;5072009;28;20031;-39
2022/02/28 01:32:03;;;;;;;6.85;4.05;;;;;;;1.98;85.80;100104.16;5072150;28;20385;-52
2022/02/28 01:34:28;;;;;;;5.43;3.80;;;;;;;1.82;84.98;100094.22;5071664;28;20085;-53
2022/02/28 01:36:54;;;;;;;5.22;3.50;;;;;;;2.04;84.59;100103.63;5054121;28;20024;-53
2022/02/28 01:39:19;;;;;;;4.93;3.22;;;;;;;1.70;85.57;100098.78;5051439;28;20440;-53
2022/02/28 01:41:44;;;;;;;4.82;3.10;;;;;;;1.78;84.94;100100.72;5052027;28;20036;-53
2022/02/28 01:44:10;;;;;;;4.60;3.30;;;;;;;1.84;85.97;100103.63;5051671;28;20029;-53
2022/02/28 01:46:38;;;;;;;5.20;3.47;;;;;;;1.69;85.93;100099.75;5052131;28;20025;-51
2022/02/28 01:49:03;;;;;;;5.18;3.50;;;;;;;1.59;85.86;100107.63;5052017;28;20120;-50
2022/02/28 01:51:28;;;;;;;4.70;3.40;;;;;;;1.59;85.30;100093.69;5051913;28;20381;-51
2022/02/28 01:53:54;;;;;;;4.40;3.28;;;;;;;1.63;86.28;100081.94;5051880;28;20017;-51
2022/02/28 01:56:20;;;;;;;4.72;3.20;;;;;;;1.77;85.48;100102.50;5051326;28;20023;-53
2022/02/28 01:58:45;;;;;;;4.53;3.40;;;;;;;1.95;84.69;100087.72;5051735;28;20052;-51
2022/02/28 02:01:11;;;;;;;4.70;3.40;;;;;;;1.93;83.79;100094.09;5051511;28;20025;-53
2022/02/28 02:03:36;;;;;;;6.07;3.30;;;;;;;1.85;84.90;100089.53;5051868;28;20473;-52
2022/02/28 02:06:05;;;;;;;4.45;3.22;;;;;;;1.75;85.57;100086.91;5051672;28;20489;-52
2022/02/28 02:08:31;;;;;;;4.05;3.25;;;;;;;1.84;84.06;100077.38;5052086;28;20020;-52
2022/02/28 02:10:56;;;;;;;5.85;3.28;;;;;;;1.81;84.00;100085.53;5033964;28;20028;-53
2022/02/28 02:13:22;;;;;;;4.45;3.10;;;;;;;1.95;83.79;100085.09;5051731;28;20473;-51
2022/02/28 02:15:47;;;;;;;4.28;3.10;;;;;;;1.98;84.15;100080.53;5033917;28;20413;-54
2022/02/28 02:18:13;;;;;;;4.82;3.30;;;;;;;2.03;84.70;100084.41;5051579;28;20029;-52
2022/02/28 02:20:39;;;;;;;4.10;3.03;;;;;;;1.99;84.39;100080.41;5051339;28;20441;-53
2022/02/28 02:23:06;;;;;;;5.05;3.20;;;;;;;2.04;84.65;100083.44;5051316;28;20049;-52
2022/02/28 02:25:33;;;;;;;4.47;3.00;;;;;;;2.26;82.42;100070.97;5051575;28;20032;-52
2022/02/28 02:27:59;;;;;;;3.55;2.70;;;;;;;2.25;82.46;100082.47;5051296;28;20029;-52
2022/02/28 02:30:24;;;;;;;4.43;3.03;;;;;;;2.28;82.21;100071.66;5051515;28;20017;-52
2022/02/28 02:32:50;;;;;;;4.40;2.75;;;;;;;2.41;82.26;100066.09;5051734;28;20024;-53
2022/02/28 02:35:15;;;;;;;5.90;2.80;;;;;;;2.49;81.26;100074.09;5055352;28;20020;-54
2022/02/28 02:37:41;;;;;;;4.72;3.05;;;;;;;2.43;81.46;100064.97;5071372;28;20029;-53
2022/02/28 02:40:06;;;;;;;4.07;2.80;;;;;;;2.43;80.91;100066.78;5071031;28;20029;-54
2022/02/28 02:42:32;;;;;;;4.05;2.67;;;;;;;2.38;80.88;100071.63;5071323;28;20676;-52
2022/02/28 02:44:57;;;;;;;4.65;2.75;;;;;;;2.39;80.13;100062.78;5071187;28;20024;-54
2022/02/28 02:47:23;;;;;;;4.50;2.70;;;;;;;2.56;80.60;100063.84;5071564;28;20537;-51
2022/02/28 02:49:48;;;;;;;4.97;3.13;;;;;;;2.82;79.01;100067.47;5074576;28;20031;-52
2022/02/28 02:52:14;;;;;;;4.88;3.38;;;;;;;2.81;78.82;100065.81;5075393;28;20021;-52
2022/02/28 02:54:39;;;;;;;4.13;3.30;;;;;;;2.78;78.20;100062.63;5075273;28;20146;-51
2022/02/28 02:57:05;;;;;;;4.72;3.42;;;;;;;2.89;79.59;100065.91;5055210;28;20025;-53
2022/02/28 02:59:30;;;;;;;6.97;3.58;;;;;;;2.89;78.15;100063.28;5055031;28;20025;-51
2022/02/28 03:01:55;;;;;;;4.90;3.40;;;;;;;2.89;77.45;100065.06;5054473;28;20346;-52
2022/02/28 03:04:21;;;;;;;4.82;3.00;;;;;;;2.80;77.82;100066.78;5055243;28;20040;-54
2022/02/28 03:06:46;;;;;;;5.28;3.30;;;;;;;2.77;77.83;100055.75;5055147;28;20017;-52
2022/02/28 03:09:12;;;;;;;5.03;3.42;;;;;;;2.78;77.25;100054.75;5054903;28;20079;-53
2022/02/28 03:11:42;;;;;;;3.72;2.85;;;;;;;2.57;78.23;100060.22;5054967;28;20036;-52
2022/02/28 03:14:08;;;;;;;;;;;;;;;2.75;77.35;100048.00;5055420;28;20025;-54
2022/02/28 03:16:33;;;;;;;3.85;2.80;;;;;;;2.70;77.88;100051.06;5054994;28;19909;-54
2022/02/28 03:18:59;;;;;;;4.80;3.45;;;;;;;2.38;80.12;100048.84;5054959;28;20028;-53
2022/02/28 03:21:24;;;;;;;5.30;3.80;;;;;;;2.39;78.94;100053.09;5055072;28;20036;-53
2022/02/28 03:23:49;;;;;;;5.22;3.60;;;;;;;2.44;79.43;100064.00;5054727;28;20068;-51
2022/02/28 03:26:15;;;;;;;5.72;3.97;;;;;;;2.70;77.53;100045.81;5054716;28;20032;-53
2022/02/28 03:28:40;;;;;;;5.20;4.10;;;;;;;2.70;78.14;100055.47;5054493;28;20051;-53
2022/02/28 03:31:06;;;;;;;6.38;4.20;;;;;;;2.68;78.18;100052.97;5054756;28;20095;-53
2022/02/28 03:33:31;;;;;;;5.72;3.97;;;;;;;2.85;77.49;100059.28;5054444;28;20028;-52
2022/02/28 03:35:57;;;;;;;6.40;4.28;;;;;;;2.84;77.40;100057.63;5064373;28;20464;-53
2022/02/28 03:38:22;;;;;;;7.38;4.75;;;;;;;2.85;77.32;100061.09;5074465;28;20031;-53
2022/02/28 03:40:48;;;;;;;4.95;3.63;;;;;;;2.73;78.31;100052.56;5055552;28;20100;-54
2022/02/28 03:43:13;;;;;;;6.18;3.90;;;;;;;2.96;76.53;100052.19;5053997;28;20017;-52
2022/02/28 03:45:39;;;;;;;5.40;4.00;;;;;;;2.74;77.71;100055.06;5054209;28;20029;-53
2022/02/28 03:48:04;;;;;;;5.22;3.63;;;;;;;2.71;78.32;100051.88;5053645;28;20037;-51
2022/02/28 03:50:30;;;;;;;4.75;3.60;;;;;;;2.59;78.05;100060.91;5054274;28;20021;-51
2022/02/28 03:52:55;;;;;;;6.07;4.30;;;;;;;2.02;80.00;100064.38;5054311;28;20032;-51
2022/02/28 03:55:21;;;;;;;4.72;3.47;;;;;;;2.31;79.90;100048.56;5054146;28;20036;-56
2022/02/28 03:57:47;;;;;;;5.93;3.42;;;;;;;2.39;79.07;100058.34;5035576;28;20170;-52
2022/02/28 04:00:13;;;;;;;5.28;3.90;;;;;;;2.88;76.89;100063.44;5052161;28;20424;-54
2022/02/28 04:02:38;;;;;;;5.72;3.92;;;;;;;2.89;75.95;100055.41;5053976;28;20051;-55
2022/02/28 04:05:04;;;;;;;5.38;3.67;;;;;;;3.06;75.45;100053.78;5053618;28;20056;-53
2022/02/28 04:07:29;;;;;;;5.93;4.00;;;;;;;2.56;76.49;100059.41;5053369;28;20507;-51
2022/02/28 04:09:55;;;;;;;6.10;3.90;;;;;;;2.49;78.57;100060.94;5053807;28;20123;-53
2022/02/28 04:12:20;;;;;;;6.85;4.35;;;;;;;2.18;80.49;100066.41;5053830;28;20397;-53
2022/02/28 04:14:46;;;;;;;6.10;4.13;;;;;;;2.13;81.28;100061.59;5053611;28;20027;-54
2022/02/28 04:17:12;;;;;;;6.20;3.83;;;;;;;2.12;80.98;100061.75;5053768;28;20043;-53
2022/02/28 04:19:37;;;;;;;4.10;3.33;;;;;;;2.10;79.66;100054.00;5053986;28;20035;-52
2022/02/28 04:22:03;;;;;;;5.65;4.00;;;;;;;2.21;80.35;100060.91;5053672;28;20045;-54
2022/02/28 04:24:28;;;;;;;5.55;4.30;;;;;;;2.92;80.19;100073.50;5053427;28;20033;-53
2022/02/28 04:26:54;;;;;;;10.70;6.20;;;;;;;3.39;78.81;100067.28;5051989;28;20090;-52
2022/02/28 04:29:19;;;;;;;47.03;21.88;;;;;;;3.70;79.09;100069.56;5051942;28;20130;-55
2022/02/28 04:31:45;;;;;;;41.72;19.77;;;;;;;3.53;82.64;100073.84;5051973;28;20480;-54
2022/02/28 04:34:10;;;;;;;11.32;6.30;;;;;;;2.89;81.05;100076.44;5051921;28;20389;-55
2022/02/28 04:36:36;;;;;;;5.53;3.92;;;;;;;2.66;81.79;100073.31;5067229;28;20507;-54
2022/02/28 04:39:02;;;;;;;8.27;4.35;;;;;;;2.58;81.82;100072.41;5072106;28;20126;-54
2022/02/28 04:41:27;;;;;;;7.32;4.72;;;;;;;2.82;82.26;100079.75;5072003;28;20033;-40
2022/02/28 04:43:53;;;;;;;7.28;4.40;;;;;;;2.53;81.84;100075.44;5073003;28;20020;-39
2022/02/28 04:46:18;;;;;;;6.28;4.28;;;;;;;2.91;81.18;100073.63;5073191;28;20035;-39
2022/02/28 04:48:44;;;;;;;6.10;4.20;;;;;;;2.96;81.44;100071.41;5072766;28;20016;-40
2022/02/28 04:51:09;;;;;;;6.43;3.85;;;;;;;2.35;81.49;100072.75;5072901;28;20149;-41
2022/02/28 04:53:35;;;;;;;7.20;4.22;;;;;;;2.26;83.50;100077.03;5072824;28;20381;-40
2022/02/28 04:56:00;;;;;;;5.50;4.05;;;;;;;2.21;85.17;100084.53;5061818;28;20021;-40
2022/02/28 04:58:26;;;;;;;10.40;3.95;;;;;;;2.10;85.39;100075.00;5052679;28;20447;-40
2022/02/28 05:00:51;;;;;;;6.05;4.13;;;;;;;2.06;85.16;100088.56;5051940;28;20024;-40
2022/02/28 05:03:17;;;;;;;5.03;4.00;;;;;;;1.99;85.62;100082.22;5051778;28;20033;-39
2022/02/28 05:05:42;;;;;;;7.15;4.45;;;;;;;1.93;85.43;100078.34;5034202;28;20500;-39
2022/02/28 05:08:08;;;;;;;7.03;4.20;;;;;;;1.93;85.96;100087.03;5051915;28;20013;-40
2022/02/28 05:10:33;;;;;;;5.90;4.40;;;;;;;2.07;86.23;100096.28;5051424;28;20025;-39
2022/02/28 05:12:59;;;;;;;5.95;4.03;;;;;;;1.95;85.20;100100.84;5051858;28;20090;-39
2022/02/28 05:15:24;;;;;;;6.40;4.45;;;;;;;1.90;85.82;100095.19;5051756;28;20035;-40
2022/02/28 05:17:50;;;;;;;6.38;4.20;;;;;;;2.05;84.25;100103.47;5051611;28;20032;-39
2022/02/28 05:20:15;;;;;;;7.32;4.82;;;;;;;1.90;85.62;100104.84;5051488;28;20040;-38
2022/02/28 05:22:41;;;;;;;8.55;5.00;;;;;;;1.91;85.12;100104.72;5051274;28;20497;-38
2022/02/28 05:25:06;;;;;;;8.57;5.20;;;;;;;1.90;85.70;100108.31;5051047;28;20033;-39
2022/02/28 05:27:39;;;;;;;9.07;6.15;;;;;;;2.08;84.76;100102.38;5038489;28;20022;-39
2022/02/28 05:30:05;;;;;;;9.60;5.93;;;;;;;2.00;85.51;100110.97;5043838;28;20474;-39
2022/02/28 05:32:31;;;;;;;8.15;5.70;;;;;;;1.88;86.16;100118.13;5031139;28;20033;-39
2022/02/28 05:34:56;;;;;;;10.70;5.50;;;;;;;1.95;85.89;100110.53;5040190;28;20102;-39
2022/02/28 05:37:22;;;;;;;7.93;5.40;;;;;;;2.18;85.06;100126.81;5051010;28;20021;-39
2022/02/28 05:39:47;;;;;;;9.32;6.20;;;;;;;2.09;84.63;100114.53;5050773;28;20025;-39
2022/02/28 05:42:13;;;;;;;10.88;6.60;;;;;;;2.22;84.51;100116.88;5051065;28;20032;-39
2022/02/28 05:44:38;;;;;;;8.45;5.75;;;;;;;2.14;84.15;100117.56;5050526;28;20021;-39
2022/02/28 05:47:04;;;;;;;12.27;6.85;;;;;;;2.19;83.80;100123.25;5049863;28;20025;-39
2022/02/28 05:49:29;;;;;;;9.43;6.50;;;;;;;2.19;83.54;100119.75;5050539;28;20031;-39
2022/02/28 05:51:55;;;;;;;11.40;6.60;;;;;;;2.22;83.37;100122.94;5050084;28;20024;-40
2022/02/28 05:54:20;;;;;;;12.35;6.47;;;;;;;2.48;83.35;100119.72;5031979;28;20040;-39
2022/02/28 05:56:46;;;;;;;40.53;20.45;;;;;;;2.44;82.26;100121.81;5049399;28;20091;-40
2022/02/28 05:59:11;;;;;;;69.07;29.25;;;;;;;2.58;81.68;100117.06;5049410;28;20052;-40
2022/02/28 06:01:37;;;;;;;31.27;17.20;;;;;;;2.66;81.62;100119.81;5049786;28;20170;-40
2022/02/28 06:04:03;;;;;;;17.58;9.93;;;;;;;2.67;81.03;100126.75;5048557;28;20036;-39
2022/02/28 06:06:29;;;;;;;10.18;6.00;;;;;;;2.57;81.72;100124.16;5048850;28;20057;-39
2022/02/28 06:08:55;;;;;;;11.20;6.20;;;;;;;2.29;82.19;100137.19;5048928;28;20035;-40
2022/02/28 06:11:21;;;;;;;89.15;37.97;;;;;;;2.45;82.26;100144.47;5050212;28;20032;-39
2022/02/28 06:13:46;;;;;;;16.08;8.30;;;;;;;2.58;81.21;100132.84;5050578;28;20024;-39
2022/02/28 06:16:11;;;;;;;8.90;5.63;;;;;;;2.33;81.82;100142.97;5050530;28;20024;-38
2022/02/28 06:18:37;;;;;;;8.93;5.10;;;;;;;2.09;82.85;100151.28;5050643;28;20082;-40
2022/02/28 06:21:02;;;;;;;11.07;5.45;;;;;;;2.12;83.00;100148.41;5050363;28;20392;-40
2022/02/28 06:23:28;;;;;;;9.40;5.30;;;;;;;2.01;83.53;100151.97;5049184;28;20106;-40
2022/02/28 06:25:54;;;;;;;8.60;5.28;;;;;;;2.04;82.51;100150.88;5050444;28;20090;-39
2022/02/28 06:28:22;;;;;;;8.15;5.35;;;;;;;2.17;82.25;100147.97;5050437;28;20032;-39
2022/02/28 06:30:48;;;;;;;9.93;6.28;;;;;;;2.14;82.79;100159.59;5050386;28;20021;-39
2022/02/28 06:33:13;;;;;;;14.75;8.02;;;;;;;2.24;83.02;100164.81;5049670;28;20029;-39
2022/02/28 06:35:39;;;;;;;11.63;7.45;;;;;;;1.91;83.64;100159.84;5057434;28;20020;-39
2022/02/28 06:38:05;;;;;;;10.60;6.88;;;;;;;1.83;83.38;100162.34;5069625;28;20372;-40
2022/02/28 06:40:30;;;;;;;9.43;6.13;;;;;;;1.72;84.04;100165.91;5069657;28;20407;-39
2022/02/28 06:42:56;;;;;;;9.48;5.65;;;;;;;1.90;83.29;100170.47;5052083;28;20171;-40
2022/02/28 06:45:24;;;;;;;8.55;5.03;;;;;;;1.52;85.80;100167.69;5069922;28;20024;-40
2022/02/28 06:47:51;;;;;;;8.38;5.05;;;;;;;1.78;84.84;100168.97;5070250;28;20063;-40
2022/02/28 06:50:16;;;;;;;7.70;5.25;;;;;;;1.93;84.90;100171.03;5069925;28;20017;-39
2022/02/28 06:52:42;;;;;;;7.13;5.03;;;;;;;2.07;84.03;100172.41;5069706;28;20044;-39
2022/02/28 06:55:07;;;;;;;8.20;5.55;;;;;;;2.15;83.44;100182.22;5070002;28;20299;-39
2022/02/28 06:57:33;;;;;;;7.75;5.05;;;;;;;2.18;83.87;100184.59;5069804;28;20508;-38
2022/02/28 06:59:58;;;;;;;7.22;5.00;;;;;;;2.14;83.24;100191.09;5069592;28;20381;-39
2022/02/28 07:02:24;;;;;;;6.57;4.85;;;;;;;2.19;83.46;100177.53;5070259;28;20036;-39
2022/02/28 07:04:49;;;;;;;8.65;4.63;;;;;;;2.21;83.23;100181.69;5069814;28;20032;-41
2022/02/28 07:07:16;;;;;;;7.03;4.30;;;;;;;2.05;84.01;100190.09;5069673;28;20050;-38
2022/02/28 07:09:42;;;;;;;7.32;4.68;;;;;;;1.95;84.65;100182.22;5069969;28;20025;-38
2022/02/28 07:12:12;;;;;;;6.47;4.03;;;;;;;1.86;85.21;100180.41;5070247;28;20442;-40
2022/02/28 07:14:38;;;;;;;7.22;4.85;;;;;;;1.94;85.19;100154.34;5050540;28;20484;-40
2022/02/28 07:17:03;;;;;;;9.93;4.93;;;;;;;2.14;83.10;100194.53;5069903;28;20111;-39
2022/02/28 07:19:29;;;;;;;9.38;5.30;;;;;;;2.10;83.83;100187.91;5069586;28;20524;-40
2022/02/28 07:21:56;;;;;;;10.82;5.72;;;;;;;2.38;82.00;100184.56;5069686;28;20053;-40
2022/02/28 07:24:21;;;;;;;6.80;4.57;;;;;;;2.17;83.33;100182.09;5069713;28;20075;-40
2022/02/28 07:26:47;;;;;;;9.23;4.85;;;;;;;2.02;84.28;100189.56;5069531;28;20052;-40
2022/02/28 07:29:13;;;;;;;6.65;5.07;;;;;;;2.12;84.01;100188.59;5070030;28;20039;-40
2022/02/28 07:31:39;;;;;;;7.15;4.75;;;;;;;2.39;82.60;100191.50;5069572;28;20104;-41
2022/02/28 07:34:04;;;;;;;8.23;4.70;;;;;;;2.35;82.46;100185.69;5070013;28;20032;-40
2022/02/28 07:36:30;;;;;;;7.63;4.22;;;;;;;2.03;83.76;100193.84;5058602;28;20150;-40
2022/02/28 07:38:55;;;;;;;6.45;4.32;;;;;;;2.25;82.86;100204.09;5053111;28;20082;-39
2022/02/28 07:41:21;;;;;;;5.57;3.95;;;;;;;2.32;82.27;100196.47;5052845;28;20473;-40
2022/02/28 07:43:46;;;;;;;6.72;4.43;;;;;;;2.29;82.51;100194.97;5053556;28;20152;-40
2022/02/28 07:46:11;;;;;;;7.28;4.47;;;;;;;2.15;83.87;100197.97;5053339;28;20021;-40
2022/02/28 07:48:37;;;;;;;7.57;4.55;;;;;;;2.28;83.87;100195.09;5052980;28;20025;-40
2022/02/28 07:51:02;;;;;;;6.95;4.32;;;;;;;2.18;83.87;100196.91;5052553;28;20035;-39
2022/02/28 07:53:28;;;;;;;6.30;4.00;;;;;;;2.34;82.20;100205.03;5052662;28;20021;-40
2022/02/28 07:55:53;;;;;;;7.30;4.65;;;;;;;2.61;81.21;100209.59;5052097;28;20397;-40
2022/02/28 07:58:19;;;;;;;7.82;4.90;;;;;;;2.53;81.94;100204.19;5052903;28;20029;-40
2022/02/28 08:00:44;;;;;;;7.53;4.38;;;;;;;2.66;82.75;100204.72;5052949;28;20029;-40
2022/02/28 08:03:10;;;;;;;9.45;5.30;;;;;;;2.82;80.79;100201.53;5052600;28;20029;-40
2022/02/28 08:05:35;;;;;;;10.15;5.40;;;;;;;2.96;80.76;100205.50;5052465;28;20029;-39
2022/02/28 08:08:00;;;;;;;10.00;5.35;;;;;;;3.11;81.42;100205.88;5052711;28;20488;-41
2022/02/28 08:10:26;;;;;;;8.60;4.97;;;;;;;3.53;79.28;100198.34;5052118;28;20025;-40
2022/02/28 08:12:51;;;;;;;8.68;5.03;;;;;;;3.53;78.28;100202.78;5052090;28;20027;-40
2022/02/28 08:15:17;;;;;;;9.20;5.47;;;;;;;3.53;78.91;100198.34;5052346;28;20078;-40
2022/02/28 08:17:43;;;;;;;8.70;5.00;;;;;;;3.58;77.37;100208.44;5052552;28;20036;-40
2022/02/28 08:20:09;;;;;;;8.68;5.38;;;;;;;3.82;78.55;100202.59;5052188;28;20048;-40
2022/02/28 08:22:34;;;;;;;10.75;5.45;;;;;;;3.79;78.90;100208.19;5052146;28;20136;-42
2022/02/28 08:25:00;;;;;;;11.15;5.38;;;;;;;3.62;79.79;100195.81;5052361;28;20473;-40
2022/02/28 08:27:26;;;;;;;7.90;4.65;;;;;;;3.60;79.16;100201.22;5052844;28;20024;-39
2022/02/28 08:29:51;;;;;;;6.82;4.10;;;;;;;4.11;77.54;100204.22;5052270;28;20021;-40
2022/02/28 08:32:17;;;;;;;7.40;3.85;;;;;;;3.87;79.55;100200.38;5052150;28;20542;-39
2022/02/28 08:34:42;;;;;;;5.47;3.70;;;;;;;3.42;79.28;100193.28;5052471;28;20025;-40
2022/02/28 08:37:08;;;;;;;6.35;3.70;;;;;;;3.00;79.07;100187.66;5071683;28;20468;-40
2022/02/28 08:39:33;;;;;;;6.15;4.10;;;;;;;3.13;80.71;100188.97;5054275;28;20400;-40
2022/02/28 08:41:59;;;;;;;7.32;3.92;;;;;;;3.20;81.48;100202.38;5071788;28;20061;-40
2022/02/28 08:44:24;;;;;;;10.07;4.82;;;;;;;3.35;81.39;100201.91;5072526;28;20032;-40
2022/02/28 08:46:50;;;;;;;9.60;5.07;;;;;;;3.47;81.03;100209.47;5071100;28;20029;-40
2022/02/28 08:49:18;;;;;;;8.88;5.10;;;;;;;3.94;79.05;100205.03;5071887;28;20036;-40
2022/02/28 08:51:45;;;;;;;9.15;4.97;;;;;;;3.51;80.13;100200.28;5071609;28;20524;-40
2022/02/28 08:54:10;;;;;;;8.25;4.90;;;;;;;3.67;nan;100202.28;5071810;28;20125;-40
2022/02/28 08:56:36;;;;;;;9.48;4.30;;;;;;;3.83;79.38;100201.66;5071856;28;20107;-40
2022/02/28 08:59:01;;;;;;;7.35;4.43;;;;;;;3.98;78.76;100199.34;5072004;28;20021;-40
2022/02/28 09:01:27;;;;;;;6.82;4.35;;;;;;;4.16;77.52;100201.97;5071857;28;20166;-41
2022/02/28 09:03:52;;;;;;;6.78;3.97;;;;;;;4.41;77.26;100192.44;5071987;28;20029;-40
2022/02/28 09:06:18;;;;;;;7.80;4.20;;;;;;;4.44;77.36;100197.44;5071295;28;20481;-40
2022/02/28 09:08:43;;;;;;;7.53;4.10;;;;;;;4.64;76.64;100202.50;5071468;28;20035;-40
2022/02/28 09:11:09;;;;;;;5.30;3.53;;;;;;;4.70;75.77;100197.47;5071643;28;20028;-41
2022/02/28 09:13:34;;;;;;;5.00;3.30;;;;;;;4.36;76.60;100204.44;5063081;28;20025;-40
2022/02/28 09:16:00;;;;;;;5.50;3.50;;;;;;;4.49;75.77;100197.81;5051646;28;20044;-39
2022/02/28 09:18:26;;;;;;;5.88;3.53;;;;;;;4.61;75.16;100198.38;5051207;28;20024;-40
2022/02/28 09:20:51;;;;;;;6.13;3.75;;;;;;;4.93;75.21;100207.50;5051431;28;20029;-40
2022/02/28 09:23:17;;;;;;;5.63;3.55;;;;;;;4.80;75.18;100201.81;5051324;28;20453;-39
2022/02/28 09:25:42;;;;;;;6.18;3.42;;;;;;;4.59;74.72;100203.00;5051297;28;20086;-40
2022/02/28 09:28:08;;;;;;;4.55;2.97;;;;;;;4.93;73.40;100209.31;5033250;28;20078;-40
2022/02/28 09:30:33;;;;;;;4.47;2.95;;;;;;;4.80;73.21;100207.09;5051121;28;20021;-39
2022/02/28 09:32:59;;;;;;;6.03;2.70;;;;;;;4.89;72.50;100212.28;5051488;28;20541;-38
2022/02/28 09:35:27;;;;;;;5.43;3.08;;;;;;;4.88;71.91;100210.59;5056223;28;20024;-39
2022/02/28 09:37:53;;;;;;;4.93;3.00;;;;;;;4.90;72.11;100205.16;5071015;28;20024;-39
2022/02/28 09:40:18;;;;;;;5.00;2.97;;;;;;;4.87;71.83;100211.59;5063213;28;20032;-41
2022/02/28 09:42:44;;;;;;;4.18;3.00;;;;;;;4.96;71.91;100203.72;5016570;28;20166;-40
2022/02/28 09:45:10;;;;;;;4.90;3.15;;;;;;;5.22;71.10;100201.91;5050592;28;20473;-39
2022/02/28 09:47:35;;;;;;;5.32;3.00;;;;;;;5.24;70.02;100199.91;5050679;28;20101;-53
2022/02/28 09:50:00;;;;;;;5.45;3.35;;;;;;;5.41;70.03;100205.28;5032941;28;20057;-53
2022/02/28 09:52:26;;;;;;;5.30;3.40;;;;;;;5.58;69.17;100201.72;5050885;28;20031;-54
2022/02/28 09:54:52;;;;;;;5.28;3.25;;;;;;;5.57;68.44;100197.41;5050074;28;20024;-52
2022/02/28 09:57:21;;;;;;;4.00;2.80;;;;;;;5.35;67.62;100192.69;5050250;28;20040;-53
2022/02/28 09:59:46;;;;;;;4.07;2.70;;;;;;;5.49;66.06;100200.84;5017143;28;20036;-52
2022/02/28 10:02:12;;;;;;;4.38;2.67;;;;;;;5.49;65.50;100205.31;5032798;28;20037;-53
2022/02/28 10:04:38;;;;;;;5.25;2.60;;;;;;;5.72;63.23;100200.28;5050602;28;20103;-53
2022/02/28 10:07:24;;;;;;;4.78;2.35;;;;;;;6.18;62.09;100203.34;5050614;28;20090;-52
2022/02/28 10:10:06;;;;;;;3.15;2.20;;;;;;;6.06;61.19;100202.03;5050443;28;20021;-53
2022/02/28 10:12:31;;;;;;;3.70;2.40;;;;;;;5.92;62.00;100202.63;5050065;28;20024;-53
2022/02/28 10:15:08;;;;;;;3.30;2.40;;;;;;;5.57;62.48;100199.22;5050193;28;20046;-53
2022/02/28 10:17:47;;;;;;;3.30;2.10;;;;;;;5.71;62.62;100206.53;5033118;28;20024;-54
2022/02/28 10:20:22;;;;;;;3.50;2.42;;;;;;;6.54;60.78;100194.28;5050005;28;20033;-54
2022/02/28 10:22:57;;;;;;;5.32;2.50;;;;;;;6.23;60.06;100203.69;5049915;28;20538;-54
2022/02/28 10:25:26;;;;;;;4.05;2.63;;;;;;;6.11;60.12;100201.53;5050210;28;20029;-54
2022/02/28 10:28:13;;;;;;;3.92;2.58;;;;;;;5.75;60.15;100194.69;5050408;28;20042;-54
2022/02/28 10:30:39;;;;;;;3.10;2.28;;;;;;;5.90;60.03;100194.03;5050147;28;20115;-54
2022/02/28 10:33:08;;;;;;;3.80;2.55;;;;;;;5.86;59.61;100193.53;5049964;28;20021;-53
2022/02/28 10:36:10;;;;;;;3.72;2.50;;;;;;;6.06;59.79;100186.19;5056023;28;20145;-54
2022/02/28 10:38:36;;;;;;;3.53;2.35;;;;;;;5.94;59.25;100182.16;5069656;28;20340;-52
2022/02/28 10:41:03;;;;;;;2.63;2.15;;;;;;;6.01;60.20;100183.19;5069581;28;20404;-54
2022/02/28 10:43:30;;;;;;;3.40;2.25;;;;;;;6.55;56.91;100180.06;5069818;28;20016;-54
2022/02/28 10:45:57;;;;;;;2.67;1.90;;;;;;;6.71;56.18;100181.88;5070012;28;20499;-53
2022/02/28 10:48:23;;;;;;;2.85;1.90;;;;;;;6.08;57.47;100181.56;5069689;28;20039;-53
2022/02/28 10:50:50;;;;;;;2.15;1.75;;;;;;;5.98;57.42;100186.19;5069975;28;20020;-54
2022/02/28 10:53:20;;;;;;;2.80;1.92;;;;;;;5.83;58.98;100186.75;5069883;28;20507;-54
2022/02/28 10:55:46;;;;;;;3.33;2.30;;;;;;;6.00;58.20;100192.94;5069965;28;20035;-52
2022/02/28 10:58:15;;;;;;;3.92;2.45;;;;;;;6.00;58.85;100194.78;5051712;28;20024;-53
2022/02/28 11:00:55;;;;;;;3.10;2.05;;;;;;;5.92;57.72;100184.13;5069457;28;20035;-54
2022/02/28 11:03:21;;;;;;;3.42;2.28;;;;;;;5.94;58.61;100198.00;5069588;28;20024;-53
2022/02/28 11:05:56;;;;;;;3.50;2.40;;;;;;;6.10;58.22;100192.78;5069376;28;20021;-50
2022/02/28 11:08:22;;;;;;;4.07;2.58;;;;;;;6.17;58.92;100203.50;5051555;28;20396;-54
2022/02/28 11:10:49;;;;;;;4.53;2.88;;;;;;;6.95;56.64;100195.06;5072948;28;20024;-54
2022/02/28 11:13:14;;;;;;;5.60;3.05;;;;;;;6.53;56.61;100197.91;5067591;28;20108;-54
2022/02/28 11:15:40;;;;;;;4.68;2.40;;;;;;;6.23;57.15;100189.66;5035604;28;20033;-54
2022/02/28 11:18:07;;;;;;;4.22;2.80;;;;;;;6.12;58.77;100190.81;5053548;28;20108;-53
2022/02/28 11:20:32;;;;;;;6.35;3.13;;;;;;;5.96;58.94;100188.13;5053448;28;20029;-54
2022/02/28 11:22:58;;;;;;;4.78;2.60;;;;;;;5.83;58.94;100185.94;5044539;28;20072;-54
2022/02/28 11:25:24;;;;;;;5.30;2.55;;;;;;;6.02;57.94;100190.16;5035565;28;20056;-54
2022/02/28 11:27:50;;;;;;;3.13;2.35;;;;;;;6.12;57.66;100184.69;5053469;28;20048;-55